sensor_id;sensor_type;location;lat;lon;timestamp;temperature;humidity
49711;DHT22;35602;44.534;18.696;2023-05-16T00:00:28;22.40;65.30
49711;DHT22;35602;44.534;18.696;2023-05-16T00:05:31;22.50;65.40
49711;DHT22;35602;44.534;18.696;2023-05-16T00:10:31;22.40;65.30
49711;DHT22;35602;44.534;18.696;2023-05-16T00:15:32;22.40;65.30
49711;DHT22;35602;44.534;18.696;2023-05-16T00:20:34;22.50;65.30
49711;DHT22;35602;44.534;18.696;2023-05-16T00:25:35;22.50;65.40
49711;DHT22;35602;44.534;18.696;2023-05-16T00:30:36;22.40;65.30
49711;DHT22;35602;44.534;18.696;2023-05-16T00:35:37;22.50;65.40
49711;DHT22;35602;44.534;18.696;2023-05-16T00:40:38;22.40;65.30
49711;DHT22;35602;44.534;18.696;2023-05-16T00:45:38;22.40;65.30
49711;DHT22;35602;44.534;18.696;2023-05-16T00:50:39;22.40;65.30
49711;DHT22;35602;44.534;18.696;2023-05-16T00:55:40;22.50;65.40
49711;DHT22;35602;44.534;18.696;2023-05-16T01:00:41;22.40;65.30
49711;DHT22;35602;44.534;18.696;2023-05-16T01:05:43;22.40;65.40
49711;DHT22;35602;44.534;18.696;2023-05-16T01:18:57;22.50;65.60
49711;DHT22;35602;44.534;18.696;2023-05-16T01:32:23;22.40;65.30
49711;DHT22;35602;44.534;18.696;2023-05-16T01:37:31;22.40;65.30
49711;DHT22;35602;44.534;18.696;2023-05-16T01:42:40;22.40;65.30
49711;DHT22;35602;44.534;18.696;2023-05-16T01:47:45;22.40;65.30
49711;DHT22;35602;44.534;18.696;2023-05-16T01:52:57;22.40;65.30
49711;DHT22;35602;44.534;18.696;2023-05-16T01:57:58;22.50;65.40
49711;DHT22;35602;44.534;18.696;2023-05-16T02:03:02;22.40;65.30
49711;DHT22;35602;44.534;18.696;2023-05-16T02:08:03;22.40;65.40
49711;DHT22;35602;44.534;18.696;2023-05-16T02:13:04;22.40;65.30
49711;DHT22;35602;44.534;18.696;2023-05-16T02:18:05;22.40;65.30
49711;DHT22;35602;44.534;18.696;2023-05-16T02:23:06;22.50;65.30
49711;DHT22;35602;44.534;18.696;2023-05-16T02:28:06;22.40;65.30
49711;DHT22;35602;44.534;18.696;2023-05-16T02:33:10;22.40;65.30
49711;DHT22;35602;44.534;18.696;2023-05-16T02:38:11;22.40;65.30
49711;DHT22;35602;44.534;18.696;2023-05-16T02:43:16;22.40;65.30
49711;DHT22;35602;44.534;18.696;2023-05-16T02:48:17;22.40;65.30
49711;DHT22;35602;44.534;18.696;2023-05-16T02:53:18;22.40;65.30
49711;DHT22;35602;44.534;18.696;2023-05-16T02:58:19;22.40;65.30
49711;DHT22;35602;44.534;18.696;2023-05-16T03:03:23;22.40;65.30
49711;DHT22;35602;44.534;18.696;2023-05-16T03:08:24;22.40;65.30
49711;DHT22;35602;44.534;18.696;2023-05-16T03:13:24;22.40;65.30
49711;DHT22;35602;44.534;18.696;2023-05-16T03:18:25;22.40;65.40
49711;DHT22;35602;44.534;18.696;2023-05-16T03:23:26;22.40;65.30
49711;DHT22;35602;44.534;18.696;2023-05-16T03:28:27;22.40;65.30
49711;DHT22;35602;44.534;18.696;2023-05-16T03:33:28;22.40;65.30
49711;DHT22;35602;44.534;18.696;2023-05-16T03:38:29;22.40;65.30
49711;DHT22;35602;44.534;18.696;2023-05-16T03:43:30;22.40;65.40
49711;DHT22;35602;44.534;18.696;2023-05-16T03:48:31;22.40;65.30
49711;DHT22;35602;44.534;18.696;2023-05-16T03:53:32;22.40;65.40
49711;DHT22;35602;44.534;18.696;2023-05-16T03:58:33;22.40;65.40
49711;DHT22;35602;44.534;18.696;2023-05-16T04:03:33;22.40;65.30
49711;DHT22;35602;44.534;18.696;2023-05-16T04:08:34;22.40;65.30
49711;DHT22;35602;44.534;18.696;2023-05-16T04:13:35;22.40;65.30
49711;DHT22;35602;44.534;18.696;2023-05-16T04:18:36;22.40;65.40
49711;DHT22;35602;44.534;18.696;2023-05-16T04:23:37;22.30;65.40
49711;DHT22;35602;44.534;18.696;2023-05-16T04:28:38;22.30;65.50
49711;DHT22;35602;44.534;18.696;2023-05-16T04:33:39;22.40;65.60
49711;DHT22;35602;44.534;18.696;2023-05-16T04:38:40;22.40;65.60
49711;DHT22;35602;44.534;18.696;2023-05-16T04:43:41;22.40;65.60
49711;DHT22;35602;44.534;18.696;2023-05-16T04:48:42;22.40;65.60
49711;DHT22;35602;44.534;18.696;2023-05-16T04:53:43;22.40;65.60
49711;DHT22;35602;44.534;18.696;2023-05-16T04:58:44;22.30;65.50
49711;DHT22;35602;44.534;18.696;2023-05-16T05:03:45;22.40;65.60
49711;DHT22;35602;44.534;18.696;2023-05-16T05:08:49;22.40;65.60
49711;DHT22;35602;44.534;18.696;2023-05-16T05:13:49;22.30;65.60
49711;DHT22;35602;44.534;18.696;2023-05-16T05:18:50;22.30;65.50
49711;DHT22;35602;44.534;18.696;2023-05-16T05:23:52;22.40;65.60
49711;DHT22;35602;44.534;18.696;2023-05-16T05:28:53;22.40;65.60
49711;DHT22;35602;44.534;18.696;2023-05-16T05:33:53;22.30;65.50
49711;DHT22;35602;44.534;18.696;2023-05-16T05:38:56;22.40;65.60
49711;DHT22;35602;44.534;18.696;2023-05-16T05:43:57;22.30;65.50
49711;DHT22;35602;44.534;18.696;2023-05-16T05:48:59;22.40;65.60
49711;DHT22;35602;44.534;18.696;2023-05-16T05:54:00;22.40;65.50
49711;DHT22;35602;44.534;18.696;2023-05-16T05:59:01;22.40;65.60
49711;DHT22;35602;44.534;18.696;2023-05-16T06:04:02;22.40;65.90
49711;DHT22;35602;44.534;18.696;2023-05-16T06:09:03;22.40;65.50
49711;DHT22;35602;44.534;18.696;2023-05-16T06:14:04;22.40;65.60
49711;DHT22;35602;44.534;18.696;2023-05-16T06:19:05;22.40;65.60
49711;DHT22;35602;44.534;18.696;2023-05-16T06:24:06;22.40;65.50
49711;DHT22;35602;44.534;18.696;2023-05-16T06:29:07;22.30;65.50
49711;DHT22;35602;44.534;18.696;2023-05-16T06:34:08;22.30;65.50
49711;DHT22;35602;44.534;18.696;2023-05-16T06:39:09;22.30;65.50
49711;DHT22;35602;44.534;18.696;2023-05-16T06:44:10;22.40;65.60
49711;DHT22;35602;44.534;18.696;2023-05-16T06:49:11;22.30;65.50
49711;DHT22;35602;44.534;18.696;2023-05-16T06:54:12;22.30;65.50
49711;DHT22;35602;44.534;18.696;2023-05-16T06:59:12;22.30;65.60
49711;DHT22;35602;44.534;18.696;2023-05-16T07:04:13;22.30;65.50
49711;DHT22;35602;44.534;18.696;2023-05-16T07:09:15;22.30;65.50
49711;DHT22;35602;44.534;18.696;2023-05-16T07:14:15;22.30;65.50
49711;DHT22;35602;44.534;18.696;2023-05-16T07:19:16;22.40;66.20
49711;DHT22;35602;44.534;18.696;2023-05-16T07:24:20;22.50;65.60
49711;DHT22;35602;44.534;18.696;2023-05-16T07:29:21;22.50;65.60
49711;DHT22;35602;44.534;18.696;2023-05-16T07:34:22;22.40;65.80
49711;DHT22;35602;44.534;18.696;2023-05-16T07:39:22;22.40;65.80
49711;DHT22;35602;44.534;18.696;2023-05-16T07:44:23;22.40;65.90
49711;DHT22;35602;44.534;18.696;2023-05-16T07:49:24;22.40;65.80
49711;DHT22;35602;44.534;18.696;2023-05-16T07:54:25;22.40;65.80
49711;DHT22;35602;44.534;18.696;2023-05-16T07:59:27;22.40;65.80
49711;DHT22;35602;44.534;18.696;2023-05-16T08:04:28;22.40;65.90
49711;DHT22;35602;44.534;18.696;2023-05-16T08:09:29;22.40;65.80
49711;DHT22;35602;44.534;18.696;2023-05-16T08:14:30;22.40;65.90
49711;DHT22;35602;44.534;18.696;2023-05-16T08:19:32;22.40;65.80
49711;DHT22;35602;44.534;18.696;2023-05-16T08:24:33;22.40;65.80
49711;DHT22;35602;44.534;18.696;2023-05-16T08:29:34;22.40;65.90
49711;DHT22;35602;44.534;18.696;2023-05-16T08:34:35;22.40;65.90
49711;DHT22;35602;44.534;18.696;2023-05-16T08:39:39;22.40;65.90
49711;DHT22;35602;44.534;18.696;2023-05-16T08:44:40;22.40;65.90
49711;DHT22;35602;44.534;18.696;2023-05-16T08:49:43;22.40;65.80
49711;DHT22;35602;44.534;18.696;2023-05-16T08:54:48;22.40;65.90
49711;DHT22;35602;44.534;18.696;2023-05-16T08:59:49;22.40;65.90
49711;DHT22;35602;44.534;18.696;2023-05-16T09:04:55;22.40;65.80
49711;DHT22;35602;44.534;18.696;2023-05-16T09:09:58;22.40;65.90
49711;DHT22;35602;44.534;18.696;2023-05-16T09:15:01;22.40;65.80
49711;DHT22;35602;44.534;18.696;2023-05-16T09:20:11;22.40;65.80
49711;DHT22;35602;44.534;18.696;2023-05-16T09:25:16;22.40;65.80
49711;DHT22;35602;44.534;18.696;2023-05-16T09:30:30;22.40;65.80
49711;DHT22;35602;44.534;18.696;2023-05-16T09:35:31;22.50;65.80
49711;DHT22;35602;44.534;18.696;2023-05-16T09:40:32;22.60;66.20
49711;DHT22;35602;44.534;18.696;2023-05-16T09:45:34;22.60;66.30
49711;DHT22;35602;44.534;18.696;2023-05-16T09:50:36;22.70;66.50
49711;DHT22;35602;44.534;18.696;2023-05-16T09:55:37;22.70;66.40
49711;DHT22;35602;44.534;18.696;2023-05-16T10:00:38;22.70;66.40
49711;DHT22;35602;44.534;18.696;2023-05-16T10:05:40;22.80;66.50
49711;DHT22;35602;44.534;18.696;2023-05-16T10:10:41;22.80;66.50
49711;DHT22;35602;44.534;18.696;2023-05-16T10:15:42;22.70;66.50
49711;DHT22;35602;44.534;18.696;2023-05-16T10:20:46;22.70;66.50
49711;DHT22;35602;44.534;18.696;2023-05-16T10:25:48;22.70;66.50
49711;DHT22;35602;44.534;18.696;2023-05-16T10:30:50;22.80;66.30
49711;DHT22;35602;44.534;18.696;2023-05-16T10:35:51;23.00;66.00
49711;DHT22;35602;44.534;18.696;2023-05-16T10:40:53;22.90;66.20
49711;DHT22;35602;44.534;18.696;2023-05-16T10:45:56;23.00;66.10
49711;DHT22;35602;44.534;18.696;2023-05-16T10:50:57;23.00;66.10
49711;DHT22;35602;44.534;18.696;2023-05-16T10:56:07;23.00;66.20
49711;DHT22;35602;44.534;18.696;2023-05-16T11:01:41;23.00;66.00
49711;DHT22;35602;44.534;18.696;2023-05-16T11:06:49;23.00;66.10
49711;DHT22;35602;44.534;18.696;2023-05-16T11:12:00;23.00;66.20
49711;DHT22;35602;44.534;18.696;2023-05-16T11:17:19;23.10;66.20
49711;DHT22;35602;44.534;18.696;2023-05-16T11:22:32;23.10;66.10
49711;DHT22;35602;44.534;18.696;2023-05-16T11:27:42;23.10;66.20
49711;DHT22;35602;44.534;18.696;2023-05-16T11:32:44;23.10;66.10
49711;DHT22;35602;44.534;18.696;2023-05-16T11:37:46;23.20;66.20
49711;DHT22;35602;44.534;18.696;2023-05-16T11:42:47;23.20;66.20
49711;DHT22;35602;44.534;18.696;2023-05-16T11:47:48;23.20;66.20
49711;DHT22;35602;44.534;18.696;2023-05-16T11:52:51;23.20;66.20
49711;DHT22;35602;44.534;18.696;2023-05-16T11:57:53;23.30;66.20
49711;DHT22;35602;44.534;18.696;2023-05-16T12:03:00;23.30;66.20
49711;DHT22;35602;44.534;18.696;2023-05-16T12:08:02;23.30;66.20
49711;DHT22;35602;44.534;18.696;2023-05-16T12:13:04;23.20;66.30
49711;DHT22;35602;44.534;18.696;2023-05-16T12:18:05;23.30;66.40
49711;DHT22;35602;44.534;18.696;2023-05-16T12:23:13;23.30;66.30
49711;DHT22;35602;44.534;18.696;2023-05-16T12:28:15;23.30;66.30
49711;DHT22;35602;44.534;18.696;2023-05-16T12:33:16;23.30;66.40
49711;DHT22;35602;44.534;18.696;2023-05-16T12:38:18;23.30;66.50
49711;DHT22;35602;44.534;18.696;2023-05-16T12:43:21;23.30;66.40
49711;DHT22;35602;44.534;18.696;2023-05-16T12:48:28;23.30;66.50
49711;DHT22;35602;44.534;18.696;2023-05-16T12:53:40;23.30;66.50
49711;DHT22;35602;44.534;18.696;2023-05-16T12:58:42;23.40;66.50
49711;DHT22;35602;44.534;18.696;2023-05-16T13:03:43;23.40;66.20
49711;DHT22;35602;44.534;18.696;2023-05-16T13:08:43;23.40;66.60
49711;DHT22;35602;44.534;18.696;2023-05-16T13:13:44;23.20;66.80
49711;DHT22;35602;44.534;18.696;2023-05-16T13:18:45;23.10;67.00
49711;DHT22;35602;44.534;18.696;2023-05-16T13:23:46;23.10;67.10
49711;DHT22;35602;44.534;18.696;2023-05-16T13:28:47;23.00;67.30
49711;DHT22;35602;44.534;18.696;2023-05-16T13:33:50;23.00;67.30
49711;DHT22;35602;44.534;18.696;2023-05-16T13:38:51;23.00;67.40
49711;DHT22;35602;44.534;18.696;2023-05-16T13:43:52;22.90;67.30
49711;DHT22;35602;44.534;18.696;2023-05-16T13:48:53;22.90;67.40
49711;DHT22;35602;44.534;18.696;2023-05-16T13:53:54;22.90;67.40
49711;DHT22;35602;44.534;18.696;2023-05-16T13:58:55;23.00;67.00
49711;DHT22;35602;44.534;18.696;2023-05-16T14:03:56;23.10;67.10
49711;DHT22;35602;44.534;18.696;2023-05-16T14:08:56;23.10;67.20
49711;DHT22;35602;44.534;18.696;2023-05-16T14:13:57;23.10;67.30
49711;DHT22;35602;44.534;18.696;2023-05-16T14:18:58;23.10;67.30
49711;DHT22;35602;44.534;18.696;2023-05-16T14:23:59;23.10;67.30
49711;DHT22;35602;44.534;18.696;2023-05-16T14:29:00;23.00;67.30
49711;DHT22;35602;44.534;18.696;2023-05-16T14:34:01;23.00;68.10
49711;DHT22;35602;44.534;18.696;2023-05-16T14:39:02;22.90;67.40
49711;DHT22;35602;44.534;18.696;2023-05-16T14:44:03;22.90;67.40
49711;DHT22;35602;44.534;18.696;2023-05-16T14:49:04;23.00;67.10
49711;DHT22;35602;44.534;18.696;2023-05-16T14:54:05;23.00;66.80
49711;DHT22;35602;44.534;18.696;2023-05-16T14:59:07;23.00;66.80
49711;DHT22;35602;44.534;18.696;2023-05-16T15:04:08;23.00;66.80
49711;DHT22;35602;44.534;18.696;2023-05-16T15:09:08;23.00;66.70
49711;DHT22;35602;44.534;18.696;2023-05-16T15:14:09;23.00;66.80
49711;DHT22;35602;44.534;18.696;2023-05-16T15:19:10;23.00;66.70
49711;DHT22;35602;44.534;18.696;2023-05-16T15:24:11;23.00;66.90
49711;DHT22;35602;44.534;18.696;2023-05-16T15:29:12;23.00;66.80
49711;DHT22;35602;44.534;18.696;2023-05-16T15:34:13;23.00;66.70
49711;DHT22;35602;44.534;18.696;2023-05-16T15:39:14;23.00;66.60
49711;DHT22;35602;44.534;18.696;2023-05-16T15:44:15;23.00;66.60
49711;DHT22;35602;44.534;18.696;2023-05-16T15:49:16;23.00;66.60
49711;DHT22;35602;44.534;18.696;2023-05-16T15:54:17;23.00;66.60
49711;DHT22;35602;44.534;18.696;2023-05-16T15:59:18;23.00;66.50
49711;DHT22;35602;44.534;18.696;2023-05-16T16:04:20;23.00;66.50
49711;DHT22;35602;44.534;18.696;2023-05-16T16:09:22;22.90;66.60
49711;DHT22;35602;44.534;18.696;2023-05-16T16:14:23;22.90;66.80
49711;DHT22;35602;44.534;18.696;2023-05-16T16:19:24;22.80;67.10
49711;DHT22;35602;44.534;18.696;2023-05-16T16:24:26;22.80;67.00
49711;DHT22;35602;44.534;18.696;2023-05-16T16:29:27;22.80;67.10
49711;DHT22;35602;44.534;18.696;2023-05-16T16:34:28;22.80;66.90
49711;DHT22;35602;44.534;18.696;2023-05-16T16:39:29;22.80;67.00
49711;DHT22;35602;44.534;18.696;2023-05-16T16:44:30;22.80;66.90
49711;DHT22;35602;44.534;18.696;2023-05-16T16:49:31;22.80;66.70
49711;DHT22;35602;44.534;18.696;2023-05-16T16:54:32;22.90;66.50
49711;DHT22;35602;44.534;18.696;2023-05-16T16:59:33;22.90;66.30
49711;DHT22;35602;44.534;18.696;2023-05-16T17:04:33;22.90;66.40
49711;DHT22;35602;44.534;18.696;2023-05-16T17:09:35;22.90;67.40
49711;DHT22;35602;44.534;18.696;2023-05-16T17:14:36;22.80;66.80
49711;DHT22;35602;44.534;18.696;2023-05-16T17:19:37;22.80;66.80
49711;DHT22;35602;44.534;18.696;2023-05-16T17:24:38;22.80;66.70
49711;DHT22;35602;44.534;18.696;2023-05-16T17:29:39;22.90;66.40
49711;DHT22;35602;44.534;18.696;2023-05-16T17:34:40;22.90;66.50
49711;DHT22;35602;44.534;18.696;2023-05-16T17:39:41;22.90;66.50
49711;DHT22;35602;44.534;18.696;2023-05-16T17:44:42;22.80;66.60
49711;DHT22;35602;44.534;18.696;2023-05-16T17:49:43;22.90;66.60
49711;DHT22;35602;44.534;18.696;2023-05-16T17:54:44;22.80;66.60
49711;DHT22;35602;44.534;18.696;2023-05-16T17:59:44;22.90;66.40
49711;DHT22;35602;44.534;18.696;2023-05-16T18:04:45;22.80;66.60
49711;DHT22;35602;44.534;18.696;2023-05-16T18:09:47;22.90;66.40
49711;DHT22;35602;44.534;18.696;2023-05-16T18:14:48;22.80;66.50
49711;DHT22;35602;44.534;18.696;2023-05-16T18:19:50;22.80;66.50
49711;DHT22;35602;44.534;18.696;2023-05-16T18:24:51;22.80;66.60
49711;DHT22;35602;44.534;18.696;2023-05-16T18:29:51;22.80;66.50
49711;DHT22;35602;44.534;18.696;2023-05-16T18:34:52;22.90;66.20
49711;DHT22;35602;44.534;18.696;2023-05-16T18:39:53;22.90;66.40
49711;DHT22;35602;44.534;18.696;2023-05-16T18:44:55;22.80;66.40
49711;DHT22;35602;44.534;18.696;2023-05-16T18:49:56;22.80;66.40
49711;DHT22;35602;44.534;18.696;2023-05-16T18:54:57;22.80;66.60
49711;DHT22;35602;44.534;18.696;2023-05-16T18:59:58;22.80;66.50
49711;DHT22;35602;44.534;18.696;2023-05-16T19:04:59;22.90;66.10
49711;DHT22;35602;44.534;18.696;2023-05-16T19:09:59;23.00;65.90
49711;DHT22;35602;44.534;18.696;2023-05-16T19:15:00;22.90;66.20
49711;DHT22;35602;44.534;18.696;2023-05-16T19:20:01;22.80;66.70
49711;DHT22;35602;44.534;18.696;2023-05-16T19:25:03;22.70;66.50
49711;DHT22;35602;44.534;18.696;2023-05-16T19:30:05;22.70;66.40
49711;DHT22;35602;44.534;18.696;2023-05-16T19:35:06;22.70;66.50
49711;DHT22;35602;44.534;18.696;2023-05-16T19:40:08;22.70;66.50
49711;DHT22;35602;44.534;18.696;2023-05-16T19:45:10;22.80;66.50
49711;DHT22;35602;44.534;18.696;2023-05-16T19:50:11;22.80;66.30
49711;DHT22;35602;44.534;18.696;2023-05-16T19:55:12;22.70;66.50
49711;DHT22;35602;44.534;18.696;2023-05-16T20:00:13;22.80;66.20
49711;DHT22;35602;44.534;18.696;2023-05-16T20:05:14;22.80;66.10
49711;DHT22;35602;44.534;18.696;2023-05-16T20:10:19;22.80;66.30
49711;DHT22;35602;44.534;18.696;2023-05-16T20:15:22;22.70;66.30
49711;DHT22;35602;44.534;18.696;2023-05-16T20:20:22;22.70;66.40
49711;DHT22;35602;44.534;18.696;2023-05-16T20:25:23;22.70;66.40
49711;DHT22;35602;44.534;18.696;2023-05-16T20:30:24;22.70;66.40
49711;DHT22;35602;44.534;18.696;2023-05-16T20:35:25;22.70;66.40
49711;DHT22;35602;44.534;18.696;2023-05-16T20:40:26;22.70;66.70
49711;DHT22;35602;44.534;18.696;2023-05-16T20:45:26;22.70;66.60
49711;DHT22;35602;44.534;18.696;2023-05-16T20:50:30;22.60;66.30
49711;DHT22;35602;44.534;18.696;2023-05-16T20:55:31;22.70;66.40
49711;DHT22;35602;44.534;18.696;2023-05-16T21:00:32;22.70;66.40
49711;DHT22;35602;44.534;18.696;2023-05-16T21:05:33;22.60;66.20
49711;DHT22;35602;44.534;18.696;2023-05-16T21:10:35;22.60;66.20
49711;DHT22;35602;44.534;18.696;2023-05-16T21:15:36;22.60;66.20
49711;DHT22;35602;44.534;18.696;2023-05-16T21:20:37;22.60;66.20
49711;DHT22;35602;44.534;18.696;2023-05-16T21:25:39;22.60;66.20
49711;DHT22;35602;44.534;18.696;2023-05-16T21:30:40;22.60;66.20
49711;DHT22;35602;44.534;18.696;2023-05-16T21:35:41;22.60;66.10
49711;DHT22;35602;44.534;18.696;2023-05-16T21:40:42;22.60;66.10
49711;DHT22;35602;44.534;18.696;2023-05-16T21:45:43;22.70;66.10
49711;DHT22;35602;44.534;18.696;2023-05-16T21:50:43;22.60;66.00
49711;DHT22;35602;44.534;18.696;2023-05-16T21:55:44;22.70;66.10
49711;DHT22;35602;44.534;18.696;2023-05-16T22:00:45;22.60;66.00
49711;DHT22;35602;44.534;18.696;2023-05-16T22:05:46;22.60;65.90
49711;DHT22;35602;44.534;18.696;2023-05-16T22:10:47;22.60;65.90
49711;DHT22;35602;44.534;18.696;2023-05-16T22:15:48;22.60;65.90
49711;DHT22;35602;44.534;18.696;2023-05-16T22:20:49;22.60;65.80
49711;DHT22;35602;44.534;18.696;2023-05-16T22:25:49;22.60;65.80
49711;DHT22;35602;44.534;18.696;2023-05-16T22:30:50;22.60;65.80
49711;DHT22;35602;44.534;18.696;2023-05-16T22:35:51;22.60;65.70
49711;DHT22;35602;44.534;18.696;2023-05-16T22:40:52;22.60;65.70
49711;DHT22;35602;44.534;18.696;2023-05-16T22:45:53;22.60;65.70
49711;DHT22;35602;44.534;18.696;2023-05-16T22:50:54;22.60;65.60
49711;DHT22;35602;44.534;18.696;2023-05-16T22:55:55;22.60;65.60
49711;DHT22;35602;44.534;18.696;2023-05-16T23:00:56;22.60;65.60
49711;DHT22;35602;44.534;18.696;2023-05-16T23:05:57;22.60;65.50
49711;DHT22;35602;44.534;18.696;2023-05-16T23:10:58;22.60;65.50
49711;DHT22;35602;44.534;18.696;2023-05-16T23:15:59;22.60;65.40
49711;DHT22;35602;44.534;18.696;2023-05-16T23:21:00;22.60;65.40
49711;DHT22;35602;44.534;18.696;2023-05-16T23:26:00;22.60;65.30
49711;DHT22;35602;44.534;18.696;2023-05-16T23:31:01;22.60;65.30
49711;DHT22;35602;44.534;18.696;2023-05-16T23:36:03;22.60;65.30
49711;DHT22;35602;44.534;18.696;2023-05-16T23:41:04;22.60;65.30
49711;DHT22;35602;44.534;18.696;2023-05-16T23:46:06;22.60;65.20
49711;DHT22;35602;44.534;18.696;2023-05-16T23:51:08;22.60;65.20
49711;DHT22;35602;44.534;18.696;2023-05-16T23:56:09;22.60;65.20
